Time;durP1;ratioP1;P1;durP2;ratioP2;P2;SDS_P1;SDS_P2;PMS_P1;PMS_P2;Temp;Humidity;BMP_temperature;BMP_pressure;BME280_temperature;BME280_humidity;BME280_pressure;Samples;Min_cycle;Max_cycle;Signal;HPM_P1;HPM_P2
2022/06/25 00:01:11;;;;;;;;;;;;;;;22.58;58.56;100523.25;7404177;19;1560;-59
2022/06/25 00:03:39;;;;;;;;;;;;;;;22.55;59.35;100531.66;7405827;19;1521;-65
2022/06/25 00:06:08;;;;;;;;;;;;;;;22.56;59.90;100540.56;7404919;19;1341;-58
2022/06/25 00:08:37;;;;;;;;;;;;;;;22.55;61.30;100526.25;7405746;19;1420;-65
2022/06/25 00:11:06;;;;;;;;;;;;;;;22.45;62.14;100509.41;7405507;19;1639;-59
2022/06/25 00:13:33;;;;;;;;;;;;;;;22.48;61.72;100517.13;7403730;19;1842;-65
2022/06/25 00:16:04;;;;;;;;;;;;;;;22.43;61.31;100523.03;7404921;19;1508;-58
2022/06/25 00:18:32;;;;;;;;;;;;;;;22.41;60.45;100540.38;7399586;19;1336;-66
2022/06/25 00:21:00;;;;;;;;;;;;;;;22.40;60.71;100500.94;7399884;19;1358;-59
2022/06/25 00:23:28;;;;;;;;;;;;;;;22.39;60.99;100528.91;7401787;19;1605;-58
2022/06/25 00:25:57;;;;;;;;;;;;;;;22.41;61.26;100524.22;7402475;19;1548;-65
2022/06/25 00:28:25;;;;;;;;;;;;;;;22.49;61.31;100537.69;7402261;19;1533;-59
2022/06/25 00:30:54;;;;;;;;;;;;;;;22.39;61.45;100520.84;7402155;19;1817;-60
2022/06/25 00:33:25;;;;;;;;;;;;;;;22.41;61.30;100525.03;7400521;19;1857;-66
2022/06/25 00:35:53;;;;;;;;;;;;;;;22.42;61.17;100521.34;7402527;19;1465;-66
2022/06/25 00:38:21;;;;;;;;;;;;;;;22.41;61.27;100522.34;7402122;19;1840;-58
2022/06/25 00:40:50;;;;;;;;;;;;;;;22.40;61.22;100533.28;7402510;19;1623;-59
2022/06/25 00:43:18;;;;;;;;;;;;;;;22.43;61.28;100527.59;7401160;19;1579;-66
2022/06/25 00:45:46;;;;;;;;;;;;;;;22.41;61.36;100529.59;7401489;19;1545;-65
2022/06/25 00:48:15;;;;;;;;;;;;;;;22.38;60.91;100529.91;7400677;19;1631;-59
2022/06/25 00:50:46;;;;;;;;;;;;;;;22.40;61.10;100517.13;7401979;19;1446;-59
2022/06/25 00:53:15;;;;;;;;;;;;;;;22.38;61.46;100530.78;7405189;19;1864;-65
2022/06/25 00:55:43;;;;;;;;;;;;;;;;;;7410692;19;1007;-65
2022/06/25 00:58:12;;;;;;;;;;;;;;;22.38;61.26;100514.63;7411494;19;1761;-66
2022/06/25 01:00:41;;;;;;;;;;;;;;;22.35;60.76;100519.47;7410940;19;1567;-59
2022/06/25 01:03:10;;;;;;;;;;;;;;;22.39;61.50;100518.13;7411407;19;1563;-66
2022/06/25 01:05:38;;;;;;;;;;;;;;;22.40;61.19;100515.28;7412006;19;1607;-66
2022/06/25 01:08:09;;;;;;;;;;;;;;;22.39;61.05;100507.38;7410815;19;1702;-58
2022/06/25 01:10:37;;;;;;;;;;;;;;;22.41;60.80;100526.91;7412518;19;1615;-65
2022/06/25 01:13:05;;;;;;;;;;;;;;;22.38;60.49;100516.44;7409119;19;1858;-65
2022/06/25 01:15:34;;;;;;;;;;;;;;;22.34;60.90;100510.56;7410903;19;1896;-62
2022/06/25 01:18:02;;;;;;;;;;;;;;;22.33;60.74;100506.16;7409784;19;1773;-65
2022/06/25 01:20:31;;;;;;;;;;;;;;;22.39;60.62;100515.44;7410369;19;1674;-59
2022/06/25 01:23:02;;;;;;;;;;;;;;;22.35;60.43;100514.09;7410957;19;1552;-59
2022/06/25 01:25:35;;;;;;;;;;;;;;;22.38;60.54;100525.38;7410687;19;1650;-61
2022/06/25 01:28:03;;;;;;;;;;;;;;;22.38;60.41;100527.22;7410937;19;1572;-65
2022/06/25 01:30:32;;;;;;;;;;;;;;;22.39;60.61;100512.75;7410702;19;1906;-65
2022/06/25 01:32:59;;;;;;;;;;;;;;;;;;7408870;19;1861;-65
2022/06/25 01:35:28;;;;;;;;;;;;;;;22.35;60.42;100514.09;7409945;19;1376;-66
2022/06/25 01:37:56;;;;;;;;;;;;;;;22.38;60.29;100520.00;7409882;19;1618;-59
2022/06/25 01:40:27;;;;;;;;;;;;;;;22.36;60.46;100513.06;7411053;19;1536;-65
2022/06/25 01:43:01;;;;;;;;;;;;;;;;;;7410574;19;1458;-58
2022/06/25 01:45:29;;;;;;;;;;;;;;;22.35;60.32;100522.16;7410554;19;1512;-65
2022/06/25 01:47:58;;;;;;;;;;;;;;;22.34;60.65;100518.63;7409278;19;1781;-65
2022/06/25 01:50:26;;;;;;;;;;;;;;;22.39;60.51;100532.44;7409978;19;1638;-66
2022/06/25 01:52:54;;;;;;;;;;;;;;;22.34;60.50;100517.78;7410119;19;1857;-64
2022/06/25 01:55:23;;;;;;;;;;;;;;;22.36;60.27;100516.63;7410898;19;1102;-65
2022/06/25 01:57:54;;;;;;;;;;;;;;;22.33;60.30;100524.19;7408635;19;1630;-66
2022/06/25 02:00:23;;;;;;;;;;;;;;;22.34;60.04;100523.16;7407024;19;1655;-58
2022/06/25 02:02:52;;;;;;;;;;;;;;;22.36;60.34;100526.53;7396227;19;1609;-58
2022/06/25 02:05:56;;;;;;;;;;;;;;;22.37;60.30;100530.94;7405631;19;1533;-59
2022/06/25 02:08:13;;;;;;;;;;;;;;;22.32;59.96;100535.94;7409945;19;1910;-58
2022/06/25 02:10:42;;;;;;;;;;;;;;;22.30;59.73;100537.97;7409534;19;1634;-59
2022/06/25 02:13:13;;;;;;;;;;;;;;;22.29;59.42;100525.53;7407040;19;1869;-59
2022/06/25 02:15:41;;;;;;;;;;;;;;;22.27;59.63;100514.06;7410288;19;934;-59
2022/06/25 02:18:10;;;;;;;;;;;;;;;22.31;59.87;100515.44;7408421;19;1574;-59
2022/06/25 02:20:39;;;;;;;;;;;;;;;22.33;59.82;100534.97;7408883;19;1515;-59
2022/06/25 02:23:08;;;;;;;;;;;;;;;22.33;59.82;100526.88;7409238;19;1579;-59
2022/06/25 02:25:36;;;;;;;;;;;;;;;22.33;60.04;100548.44;7408922;19;1655;-59
2022/06/25 02:28:04;;;;;;;;;;;;;;;22.34;59.77;100537.50;7408331;19;1619;-59
2022/06/25 02:30:36;;;;;;;;;;;;;;;22.29;59.94;100537.13;7408703;19;1606;-59
2022/06/25 02:33:04;;;;;;;;;;;;;;;22.29;60.08;100530.91;7406686;19;1863;-59
2022/06/25 02:35:33;;;;;;;;;;;;;;;22.30;59.56;100540.66;7407943;19;1607;-59
2022/06/25 02:38:01;;;;;;;;;;;;;;;22.24;59.32;100556.47;7408317;19;1512;-58
2022/06/25 02:40:29;;;;;;;;;;;;;;;22.26;60.09;100548.22;7408134;19;1400;-59
2022/06/25 02:42:58;;;;;;;;;;;;;;;22.27;59.76;100560.69;7403033;19;1426;-59
2022/06/25 02:45:26;;;;;;;;;;;;;;;22.24;59.74;100552.94;7407916;19;1744;-58
2022/06/25 02:47:58;;;;;;;;;;;;;;;22.27;59.40;100571.47;7407131;19;1674;-60
2022/06/25 02:50:26;;;;;;;;;;;;;;;22.25;59.28;100565.41;7408034;19;1595;-59
2022/06/25 02:52:55;;;;;;;;;;;;;;;22.23;59.20;100560.13;7407823;19;1551;-59
2022/06/25 02:58:54;;;;;;;;;;;;;;;22.24;59.01;100577.16;7405946;19;1853;-59
2022/06/25 03:00:54;;;;;;;;;;;;;;;22.26;58.88;100579.72;7406691;19;1540;-59
2022/06/25 03:03:25;;;;;;;;;;;;;;;22.24;59.20;100548.41;7403243;19;1607;-59
2022/06/25 03:05:53;;;;;;;;;;;;;;;22.29;59.58;100582.94;7406861;19;1750;-59
2022/06/25 03:08:22;;;;;;;;;;;;;;;22.28;59.55;100567.75;7406927;19;1607;-59
2022/06/25 03:10:50;;;;;;;;;;;;;;;22.27;59.67;100562.56;7406604;19;1548;-59
2022/06/25 03:13:18;;;;;;;;;;;;;;;22.23;59.45;100573.59;7406309;19;1845;-59
2022/06/25 03:15:47;;;;;;;;;;;;;;;22.22;59.11;100585.41;7407506;19;942;-59
2022/06/25 03:18:15;;;;;;;;;;;;;;;22.32;59.00;100600.59;7406884;19;1796;-59
2022/06/25 03:20:46;;;;;;;;;;;;;;;22.26;59.47;100585.09;7406684;19;1341;-58
2022/06/25 03:23:14;;;;;;;;;;;;;;;22.32;59.27;100598.78;7405630;19;1308;-59
2022/06/25 03:25:42;;;;;;;;;;;;;;;22.30;59.33;100575.69;7407466;19;1550;-59
2022/06/25 03:39:07;;;;;;;;;;;;;;;22.32;58.94;100579.94;6912508;19;10001873;-36
2022/06/25 03:41:36;;;;;;;;;;;;;;;22.32;59.08;100584.44;7429142;19;1664;-36
2022/06/25 03:44:04;;;;;;;;;;;;;;;22.31;59.10;100572.84;7426840;19;1901;-36
2022/06/25 03:46:33;;;;;;;;;;;;;;;22.29;59.26;100568.63;7428670;19;1875;-36
2022/06/25 03:49:01;;;;;;;;;;;;;;;22.31;59.03;100572.00;7429706;19;1921;-36
2022/06/25 03:51:32;;;;;;;;;;;;;;;22.32;58.97;100562.88;7429872;19;1918;-37
2022/06/25 03:54:15;;;;;;;;;;;;;;;22.32;58.95;100557.50;7427726;19;1327;-36
2022/06/25 03:56:46;;;;;;;;;;;;;;;22.31;58.89;100563.91;7430740;19;1571;-36
2022/06/25 03:59:16;;;;;;;;;;;;;;;22.30;58.99;100562.22;7429058;19;1909;-36
2022/06/25 04:01:44;;;;;;;;;;;;;;;22.36;58.92;100570.50;7429535;19;1662;-36
2022/06/25 04:04:12;;;;;;;;;;;;;;;22.40;58.81;100588.03;7429809;19;1677;-36
2022/06/25 04:06:46;;;;;;;;;;;;;;;22.37;58.68;100568.66;7428516;19;1858;-36
2022/06/25 04:09:17;;;;;;;;;;;;;;;22.40;58.88;100585.34;7428964;19;1826;-37
2022/06/25 04:11:48;;;;;;;;;;;;;;;22.35;58.81;100584.13;7430350;19;1794;-36
2022/06/25 04:14:16;;;;;;;;;;;;;;;;;;7429123;19;1928;-36
2022/06/25 04:16:45;;;;;;;;;;;;;;;22.42;58.48;100585.16;7427975;19;1823;-36
2022/06/25 04:19:13;;;;;;;;;;;;;;;22.50;58.47;100576.25;7428429;19;1888;-36
2022/06/25 04:21:47;;;;;;;;;;;;;;;22.55;58.48;100585.56;7428009;19;1512;-36
2022/06/25 04:24:17;;;;;;;;;;;;;;;22.59;58.26;100576.13;7428550;19;1630;-36
2022/06/25 04:26:46;;;;;;;;;;;;;;;22.64;58.23;100578.31;7430234;19;1864;-37
2022/06/25 04:29:14;;;;;;;;;;;;;;;22.62;58.12;100574.94;7424705;19;2332;-36
2022/06/25 04:31:44;;;;;;;;;;;;;;;22.62;58.02;100578.50;7427247;19;1727;-36
2022/06/25 04:34:12;;;;;;;;;;;;;;;22.60;58.28;100583.22;7428350;19;1521;-36
2022/06/25 04:36:40;;;;;;;;;;;;;;;22.62;58.13;100578.50;7426405;19;1854;-36
2022/06/25 04:39:09;;;;;;;;;;;;;;;22.68;58.18;100584.22;7410608;19;1778;-37
2022/06/25 04:41:37;;;;;;;;;;;;;;;22.72;58.17;100585.59;7399859;19;1304;-36
2022/06/25 04:44:08;;;;;;;;;;;;;;;22.79;58.33;100592.03;7399123;19;1824;-36
2022/06/25 04:46:39;;;;;;;;;;;;;;;22.76;58.05;100571.63;7398850;19;1852;-36
2022/06/25 04:49:07;;;;;;;;;;;;;;;22.76;57.96;100587.81;7399582;19;1830;-36
2022/06/25 04:51:36;;;;;;;;;;;;;;;22.80;58.07;100599.09;7399955;19;1933;-36
2022/06/25 04:54:08;;;;;;;;;;;;;;;22.87;58.45;100592.03;7405540;19;1966;-36
2022/06/25 04:56:46;;;;;;;;;;;;;;;22.95;58.21;100592.03;7404031;19;2032;-36
2022/06/25 04:59:18;;;;;;;;;;;;;;;22.94;58.22;100601.16;7404195;19;2043;-36
2022/06/25 05:01:50;;;;;;;;;;;;;;;22.97;58.08;100598.13;7404200;19;1636;-36
2022/06/25 05:04:18;;;;;;;;;;;;;;;23.03;58.10;100591.25;7404962;19;1677;-36
2022/06/25 05:06:50;;;;;;;;;;;;;;;23.12;58.06;100598.34;7404741;19;1867;-36
2022/06/25 05:09:19;;;;;;;;;;;;;;;23.18;58.10;100591.47;7404301;19;1654;-36
2022/06/25 05:11:52;;;;;;;;;;;;;;;23.19;58.45;100603.91;7405751;19;1729;-35
2022/06/25 05:14:26;;;;;;;;;;;;;;;23.26;58.75;100618.44;7402837;19;1765;-35
2022/06/25 05:17:02;;;;;;;;;;;;;;;23.27;58.35;100606.63;7404616;19;1493;-36
2022/06/25 05:19:31;;;;;;;;;;;;;;;23.22;58.58;100604.44;7404248;19;1712;-37
2022/06/25 05:22:06;;;;;;;;;;;;;;;23.26;58.36;100601.38;7404778;19;1601;-36
2022/06/25 05:24:46;;;;;;;;;;;;;;;23.31;58.56;100599.88;7407288;19;1490;-35
2022/06/25 05:27:15;;;;;;;;;;;;;;;23.34;58.77;100593.31;7404373;19;1863;-35
2022/06/25 05:29:43;;;;;;;;;;;;;;;23.37;58.77;100599.19;7402773;19;1779;-37
2022/06/25 05:32:15;;;;;;;;;;;;;;;23.40;58.68;100596.19;7403680;19;1510;-35
2022/06/25 05:34:48;;;;;;;;;;;;;;;23.42;58.65;100593.31;7400005;19;1585;-36
2022/06/25 05:37:28;;;;;;;;;;;;;;;23.41;59.28;100597.84;7402318;19;1885;-36
2022/06/25 05:40:05;;;;;;;;;;;;;;;23.41;59.29;100597.84;7403268;19;1647;-35
2022/06/25 05:42:41;;;;;;;;;;;;;;;23.23;61.22;100599.88;7403048;19;1493;-35
2022/06/25 05:45:11;;;;;;;;;;;;;;;21.79;62.48;100600.63;7401591;19;1568;-35
2022/06/25 05:47:44;;;;;;;;;;;;;;;20.95;62.12;100618.03;7401948;19;1856;-35
2022/06/25 05:50:19;;;;;;;;;;;;;;;20.61;61.56;100615.13;7402639;19;1914;-36
2022/06/25 05:52:49;;;;;;;;;;;;;;;20.42;60.81;100616.03;7404619;19;1558;-36
2022/06/25 05:55:25;;;;;;;;;;;;;;;20.43;60.19;100606.97;7404434;19;1791;-35
2022/06/25 05:57:55;;;;;;;;;;;;;;;20.50;59.61;100615.31;7402802;19;1721;-36
2022/06/25 06:00:23;;;;;;;;;;;;;;;20.57;59.69;100617.25;7403817;19;1902;-36
2022/06/25 06:02:54;;;;;;;;;;;;;;;20.61;59.97;100615.13;7401745;19;1470;-36
2022/06/25 06:05:22;;;;;;;;;;;;;;;20.59;60.16;100625.16;7402156;19;1541;-35
2022/06/25 06:07:51;;;;;;;;;;;;;;;20.69;60.09;100622.44;7402374;19;1855;-36
2022/06/25 06:10:19;;;;;;;;;;;;;;;20.61;60.07;100597.19;7404539;19;1348;-35
2022/06/25 06:12:48;;;;;;;;;;;;;;;20.60;60.21;100614.28;7401463;19;1716;-36
2022/06/25 06:15:16;;;;;;;;;;;;;;;20.57;60.07;100611.88;7401997;19;1648;-36
2022/06/25 06:17:44;;;;;;;;;;;;;;;20.53;59.93;100606.94;7401708;19;1614;-36
2022/06/25 06:20:15;;;;;;;;;;;;;;;20.55;60.42;100603.13;7401046;19;1573;-37
2022/06/25 06:22:44;;;;;;;;;;;;;;;20.55;60.16;100610.31;7402199;19;1633;-36
2022/06/25 06:25:12;;;;;;;;;;;;;;;20.47;60.23;100597.63;7402698;19;1641;-35
2022/06/25 06:27:47;;;;;;;;;;;;;;;20.49;60.32;100611.75;7399188;19;1856;-36
2022/06/25 06:30:15;;;;;;;;;;;;;;;20.49;60.54;100603.69;7400389;19;1696;-36
2022/06/25 06:32:46;;;;;;;;;;;;;;;20.44;60.52;100588.03;7402777;19;1736;-35
2022/06/25 06:35:16;;;;;;;;;;;;;;;20.45;60.52;100604.97;7401069;19;1557;-36
2022/06/25 06:37:45;;;;;;;;;;;;;;;20.44;60.16;100589.88;7397280;19;1813;-36
2022/06/25 06:40:15;;;;;;;;;;;;;;;20.53;60.55;100605.09;7401065;19;1537;-35
2022/06/25 06:42:43;;;;;;;;;;;;;;;20.53;60.32;100605.09;7399105;19;1617;-36
2022/06/25 06:45:16;;;;;;;;;;;;;;;20.49;60.28;100601.00;7400068;19;1643;-36
2022/06/25 06:47:48;;;;;;;;;;;;;;;20.58;60.24;100596.59;7398624;19;1858;-35
2022/06/25 06:50:20;;;;;;;;;;;;;;;20.51;60.74;100596.31;7402468;19;1938;-36
2022/06/25 06:52:49;;;;;;;;;;;;;;;20.54;62.41;100606.78;7400887;19;1549;-36
2022/06/25 06:55:24;;;;;;;;;;;;;;;20.51;62.23;100588.25;7401518;19;1954;-35
2022/06/25 06:57:54;;;;;;;;;;;;;;;20.51;62.28;100609.75;7399910;19;2030;-35
2022/06/25 07:00:23;;;;;;;;;;;;;;;20.45;61.89;100588.88;7399514;19;1895;-35
2022/06/25 07:02:51;;;;;;;;;;;;;;;20.43;61.98;100585.47;7399465;19;1815;-35
2022/06/25 07:05:22;;;;;;;;;;;;;;;20.44;62.18;100582.66;7400400;19;1775;-36
2022/06/25 07:07:50;;;;;;;;;;;;;;;20.44;62.18;100581.81;7401636;19;1845;-35
2022/06/25 07:10:20;;;;;;;;;;;;;;;20.48;61.96;100588.59;7401266;19;1790;-35
2022/06/25 07:12:49;;;;;;;;;;;;;;;20.45;61.83;100589.75;7399853;19;1902;-36
2022/06/25 07:15:17;;;;;;;;;;;;;;;20.47;61.53;100592.25;7399978;19;1704;-36
2022/06/25 07:17:45;;;;;;;;;;;;;;;20.39;61.70;100584.09;7400124;19;1721;-35
2022/06/25 07:20:13;;;;;;;;;;;;;;;20.38;61.73;100582.41;7399414;19;1724;-35
2022/06/25 07:22:46;;;;;;;;;;;;;;;20.43;61.41;100580.13;7400029;19;1734;-35
2022/06/25 07:25:14;;;;;;;;;;;;;;;20.32;61.87;100577.66;7401088;19;1900;-35
2022/06/25 07:27:43;;;;;;;;;;;;;;;20.35;61.72;100596.13;7396805;19;1851;-36
2022/06/25 07:30:13;;;;;;;;;;;;;;;20.27;61.78;100597.72;7400331;19;1773;-36
2022/06/25 07:32:41;;;;;;;;;;;;;;;20.30;61.85;100585.00;7401045;19;1623;-35
2022/06/25 07:35:10;;;;;;;;;;;;;;;20.30;61.94;100585.84;7400830;19;1570;-35
2022/06/25 07:37:38;;;;;;;;;;;;;;;20.27;61.52;100578.94;7397081;19;1863;-35
2022/06/25 07:40:10;;;;;;;;;;;;;;;20.27;61.47;100578.94;7399710;19;1465;-36
2022/06/25 07:42:38;;;;;;;;;;;;;;;20.29;61.36;100576.09;7399603;19;1681;-35
2022/06/25 07:45:07;;;;;;;;;;;;;;;20.25;61.37;100582.75;7400013;19;1472;-36
2022/06/25 07:47:39;;;;;;;;;;;;;;;20.30;61.35;100591.22;7400831;19;1719;-35
2022/06/25 07:52:49;;;;;;;;;;;;;;;20.25;61.52;100594.34;7402181;19;1504;-36
2022/06/25 07:55:20;;;;;;;;;;;;;;;20.24;61.45;100581.91;7400531;19;1798;-36
2022/06/25 07:57:49;;;;;;;;;;;;;;;20.23;61.47;100580.22;7398501;19;1641;-36
2022/06/25 08:00:17;;;;;;;;;;;;;;;20.21;61.50;100594.78;7397207;19;1520;-36
2022/06/25 08:02:46;;;;;;;;;;;;;;;20.21;61.18;100576.84;7399958;19;1711;-36
2022/06/25 08:05:14;;;;;;;;;;;;;;;20.20;61.42;100577.81;7400336;19;1674;-36
2022/06/25 08:07:42;;;;;;;;;;;;;;;20.17;61.49;100577.28;7400609;19;1860;-36
2022/06/25 08:10:11;;;;;;;;;;;;;;;20.13;61.64;100565.97;7400876;19;1673;-35
2022/06/25 08:12:42;;;;;;;;;;;;;;;20.17;61.25;100566.53;7398590;19;1646;-35
2022/06/25 08:15:10;;;;;;;;;;;;;;;20.21;61.53;100575.97;7404384;19;1708;-36
2022/06/25 08:17:38;;;;;;;;;;;;;;;20.17;61.46;100585.31;7407004;19;1618;-36
2022/06/25 08:20:07;;;;;;;;;;;;;;;20.16;61.21;100575.59;7407712;19;1772;-36
2022/06/25 08:22:35;;;;;;;;;;;;;;;20.18;61.31;100587.03;7408073;19;1040;-35
2022/06/25 08:25:04;;;;;;;;;;;;;;;20.15;61.40;100572.03;7406552;19;1623;-35
2022/06/25 08:27:32;;;;;;;;;;;;;;;20.10;61.51;100579.72;7405127;19;1821;-35
2022/06/25 08:30:03;;;;;;;;;;;;;;;20.17;61.42;100578.09;7403251;19;1871;-37
2022/06/25 08:32:31;;;;;;;;;;;;;;;20.14;61.60;100569.53;7407477;19;1645;-36
2022/06/25 08:34:59;;;;;;;;;;;;;;;20.15;61.59;100572.03;7407277;19;1794;-35
2022/06/25 08:37:27;;;;;;;;;;;;;;;20.16;61.26;100571.06;7405632;19;1931;-35
2022/06/25 08:39:56;;;;;;;;;;;;;;;20.11;61.51;100569.81;7406929;19;1952;-35
2022/06/25 08:42:24;;;;;;;;;;;;;;;20.11;61.39;100576.03;7407615;19;1505;-35
2022/06/25 08:44:52;;;;;;;;;;;;;;;20.08;61.58;100580.88;7404386;19;1574;-36
2022/06/25 08:47:23;;;;;;;;;;;;;;;20.11;61.48;100576.03;7407053;19;1155;-35
2022/06/25 08:49:52;;;;;;;;;;;;;;;20.11;61.40;100572.50;7404258;19;1896;-35
2022/06/25 08:52:21;;;;;;;;;;;;;;;20.05;61.30;100572.13;7405730;19;2037;-35
2022/06/25 08:54:49;;;;;;;;;;;;;;;20.12;61.61;100585.78;7405751;19;1796;-35
2022/06/25 08:57:18;;;;;;;;;;;;;;;20.04;61.33;100564.19;7405799;19;1626;-36
2022/06/25 08:59:46;;;;;;;;;;;;;;;20.01;61.32;100575.22;7406336;19;1337;-36
2022/06/25 09:02:14;;;;;;;;;;;;;;;19.98;61.50;100571.00;7405216;19;1645;-35
2022/06/25 09:04:45;;;;;;;;;;;;;;;20.01;61.42;100576.06;7405962;19;1945;-36
2022/06/25 09:07:14;;;;;;;;;;;;;;;20.08;61.68;100587.06;7404394;19;1836;-35
2022/06/25 09:09:47;;;;;;;;;;;;;;;20.01;61.32;100584.09;7398711;19;1851;-36
2022/06/25 09:12:16;;;;;;;;;;;;;;;20.09;61.28;100582.53;7399879;19;1571;-36
2022/06/25 09:14:44;;;;;;;;;;;;;;;20.03;61.53;100586.66;7404321;19;1551;-36
2022/06/25 09:17:14;;;;;;;;;;;;;;;19.98;61.71;100579.03;7402553;19;1889;-35
2022/06/25 09:19:47;;;;;;;;;;;;;;;20.01;61.27;100576.06;7404798;19;1717;-35
2022/06/25 09:22:17;;;;;;;;;;;;;;;20.00;61.28;100578.91;7405130;19;1944;-35
2022/06/25 09:24:47;;;;;;;;;;;;;;;20.01;61.50;100564.47;7403033;19;1697;-35
2022/06/25 09:27:16;;;;;;;;;;;;;;;19.96;61.63;100566.78;7404780;19;1614;-35
2022/06/25 09:29:48;;;;;;;;;;;;;;;20.03;61.79;100568.72;7403426;19;1847;-36
2022/06/25 09:32:17;;;;;;;;;;;;;;;20.05;62.16;100561.38;7406419;19;1976;-35
2022/06/25 09:34:48;;;;;;;;;;;;;;;20.11;62.70;100551.84;7399128;19;2043;-35
2022/06/25 09:37:20;;;;;;;;;;;;;;;20.19;62.58;100576.16;7400771;19;2035;-36
2022/06/25 09:39:49;;;;;;;;;;;;;;;20.18;63.25;100560.19;7401093;19;1853;-35
2022/06/25 09:42:27;;;;;;;;;;;;;;;20.23;63.60;100558.75;7403093;19;1471;-36
2022/06/25 09:45:04;;;;;;;;;;;;;;;20.33;63.70;100580.16;7403205;19;1518;-35
2022/06/25 09:47:32;;;;;;;;;;;;;;;21.11;61.30;100555.53;7402759;19;2349;-36
2022/06/25 09:50:08;;;;;;;;;;;;;;;21.60;60.50;100558.59;7400356;19;1913;-36
2022/06/25 09:52:37;;;;;;;;;;;;;;;21.93;59.38;100564.19;7403573;19;1875;-36
2022/06/25 09:55:05;;;;;;;;;;;;;;;22.09;59.11;100566.13;7402227;19;1766;-36
2022/06/25 09:57:34;;;;;;;;;;;;;;;22.21;59.44;100567.53;7402302;19;1859;-36
2022/06/25 10:00:03;;;;;;;;;;;;;;;22.27;59.36;100567.94;7401669;19;1335;-36
2022/06/25 10:02:33;;;;;;;;;;;;;;;22.33;58.75;100559.22;7403999;19;1711;-36
2022/06/25 10:05:03;;;;;;;;;;;;;;;22.38;58.42;100548.78;7404637;19;1721;-36
2022/06/25 10:10:18;;;;;;;;;;;;;;;22.38;58.97;100544.25;7402216;19;1860;-36
2022/06/25 10:12:47;;;;;;;;;;;;;;;22.44;58.61;100548.13;7402529;19;1505;-36
2022/06/25 10:15:17;;;;;;;;;;;;;;;22.43;58.73;100549.13;7402738;19;1517;-36
2022/06/25 10:17:46;;;;;;;;;;;;;;;22.43;58.45;100552.66;7402583;19;1686;-36
2022/06/25 10:20:15;;;;;;;;;;;;;;;22.43;58.55;100552.66;7402456;19;1715;-37
2022/06/25 10:22:47;;;;;;;;;;;;;;;22.44;58.38;100545.41;7402789;19;1521;-36
2022/06/25 10:25:16;;;;;;;;;;;;;;;22.48;59.15;100538.69;7401398;19;1533;-36
2022/06/25 10:27:45;;;;;;;;;;;;;;;22.53;58.65;100543.63;7389230;19;1776;-39
2022/06/25 10:30:15;;;;;;;;;;;;;;;22.59;58.59;100554.56;7394179;19;1869;-38
2022/06/25 10:32:47;;;;;;;;;;;;;;;22.63;58.43;100553.22;7397001;19;1389;-39
2022/06/25 10:35:29;;;;;;;;;;;;;;;22.66;58.57;100549.38;7400357;19;1970;-38
2022/06/25 10:38:05;;;;;;;;;;;;;;;22.79;58.34;100543.50;7400221;19;2056;-38
2022/06/25 10:40:34;;;;;;;;;;;;;;;22.81;58.26;100558.50;7399545;19;1820;-39
2022/06/25 10:43:03;;;;;;;;;;;;;;;22.76;58.51;100560.00;7401491;19;1743;-38
2022/06/25 10:45:53;;;;;;;;;;;;;;;22.76;58.57;100533.91;7401733;19;1976;-39
2022/06/25 10:48:22;;;;;;;;;;;;;;;22.81;58.90;100557.66;7401921;19;1553;-38
2022/06/25 10:50:55;;;;;;;;;;;;;;;22.78;58.73;100545.34;7399807;19;1859;-38
2022/06/25 10:53:29;;;;;;;;;;;;;;;22.82;58.56;100537.78;7401271;19;1406;-38
2022/06/25 10:56:24;;;;;;;;;;;;;;;22.88;58.64;100522.78;7402826;19;1905;-38
2022/06/25 10:58:53;;;;;;;;;;;;;;;22.87;58.52;100543.50;7400679;19;1896;-38
2022/06/25 11:01:23;;;;;;;;;;;;;;;22.88;58.68;100552.44;7401451;19;1763;-38
2022/06/25 11:03:55;;;;;;;;;;;;;;;22.91;58.51;100550.25;7402541;19;1571;-38
2022/06/25 11:06:24;;;;;;;;;;;;;;;22.92;58.55;100543.88;7401237;19;1694;-38
2022/06/25 11:08:55;;;;;;;;;;;;;;;22.92;58.65;100535.78;7401174;19;1852;-38
2022/06/25 11:11:27;;;;;;;;;;;;;;;22.94;58.41;100531.06;7400869;19;2085;-38
2022/06/25 11:13:56;;;;;;;;;;;;;;;22.93;58.56;100529.34;7400977;19;1546;-39
2022/06/25 11:16:25;;;;;;;;;;;;;;;22.99;58.98;100533.25;7400727;19;1480;-38
2022/06/25 11:18:54;;;;;;;;;;;;;;;22.97;58.58;100532.56;7400556;19;1516;-38
2022/06/25 11:21:28;;;;;;;;;;;;;;;22.98;58.95;100534.25;7400495;19;1822;-38
2022/06/25 11:24:09;;;;;;;;;;;;;;;22.95;58.90;100516.53;7400417;19;1540;-38
2022/06/25 11:29:20;;;;;;;;;;;;;;;22.99;58.98;100525.16;7398718;19;1876;-38
2022/06/25 11:31:49;;;;;;;;;;;;;;;23.03;58.84;100523.84;7401738;19;1710;-38
2022/06/25 11:34:19;;;;;;;;;;;;;;;22.98;58.91;100524.31;7400658;19;1534;-39
2022/06/25 11:36:47;;;;;;;;;;;;;;;23.03;58.70;100532.75;7400641;19;1751;-39
2022/06/25 11:39:19;;;;;;;;;;;;;;;23.06;58.60;100517.25;7401134;19;1468;-39
2022/06/25 11:41:50;;;;;;;;;;;;;;;23.05;58.92;100529.06;7400562;19;1796;-38
2022/06/25 11:44:19;;;;;;;;;;;;;;;23.08;58.60;100521.50;7399998;19;2015;-38
2022/06/25 11:46:47;;;;;;;;;;;;;;;23.08;58.51;100520.63;7399428;19;1982;-38
2022/06/25 11:49:16;;;;;;;;;;;;;;;23.10;58.55;100526.69;7408511;19;1835;-38
2022/06/25 11:51:48;;;;;;;;;;;;;;;23.10;58.57;100529.38;7424088;19;1497;-38
2022/06/25 11:54:21;;;;;;;;;;;;;;;23.10;58.63;100545.56;7407400;19;1384;-37
2022/06/25 11:56:51;;;;;;;;;;;;;;;23.10;58.74;100540.19;7408237;19;1882;-38
2022/06/25 11:59:30;;;;;;;;;;;;;;;23.11;58.56;100531.09;7406430;19;1983;-38
2022/06/25 12:01:58;;;;;;;;;;;;;;;23.12;58.47;100530.06;7407659;19;1857;-38
2022/06/25 12:04:27;;;;;;;;;;;;;;;23.15;58.48;100529.75;7405388;19;1768;-38
2022/06/25 12:06:55;;;;;;;;;;;;;;;23.16;58.80;100532.28;7406282;19;1680;-37
2022/06/25 12:09:26;;;;;;;;;;;;;;;23.17;58.65;100535.81;7406107;19;1866;-38
2022/06/25 12:11:55;;;;;;;;;;;;;;;23.24;58.60;100547.63;7416931;19;1869;-38
2022/06/25 12:14:32;;;;;;;;;;;;;;;23.17;58.86;100538.50;7415818;19;2043;-38
2022/06/25 12:17:01;;;;;;;;;;;;;;;23.16;59.07;100528.75;7406758;19;1889;-39
2022/06/25 12:19:45;;;;;;;;;;;;;;;23.17;59.08;100542.03;7406118;19;1946;-39
2022/06/25 12:22:20;;;;;;;;;;;;;;;23.11;59.52;100529.22;7405919;19;1813;-38
2022/06/25 12:24:51;;;;;;;;;;;;;;;23.16;59.56;100523.34;7405879;19;1548;-38
2022/06/25 12:27:20;;;;;;;;;;;;;;;23.15;59.17;100529.75;7406350;19;1636;-38
2022/06/25 12:29:50;;;;;;;;;;;;;;;23.17;59.05;100530.41;7406184;19;1875;-38
2022/06/25 12:32:19;;;;;;;;;;;;;;;23.31;59.13;100537.81;7405561;19;1418;-38
2022/06/25 12:34:49;;;;;;;;;;;;;;;23.40;59.53;100528.72;7407553;19;1820;-36
2022/06/25 12:37:30;;;;;;;;;;;;;;;23.41;59.45;100538.47;7404754;19;1543;-36
2022/06/25 12:40:02;;;;;;;;;;;;;;;23.42;60.86;100534.78;7399744;19;2021;-36
2022/06/25 12:42:33;;;;;;;;;;;;;;;23.30;61.17;100536.16;7400471;19;1801;-36
2022/06/25 12:45:02;;;;;;;;;;;;;;;23.25;61.37;100524.16;7404193;19;1451;-36
2022/06/25 12:47:42;;;;;;;;;;;;;;;23.18;61.05;100515.94;7404233;19;1917;-36
2022/06/25 12:50:22;;;;;;;;;;;;;;;23.19;60.97;100529.22;7405495;19;1996;-36
2022/06/25 12:52:50;;;;;;;;;;;;;;;23.23;60.48;100524.34;7405178;19;1546;-36
2022/06/25 12:55:25;;;;;;;;;;;;;;;23.21;60.56;100527.19;7404036;19;1476;-36
2022/06/25 12:57:53;;;;;;;;;;;;;;;23.19;60.86;100533.78;7404469;19;1644;-36
2022/06/25 13:00:22;;;;;;;;;;;;;;;23.15;60.56;100525.19;7401895;19;1481;-36
2022/06/25 13:02:51;;;;;;;;;;;;;;;23.20;60.98;100522.81;7404773;19;1751;-36
2022/06/25 13:05:19;;;;;;;;;;;;;;;23.25;61.35;100527.69;7405058;19;1935;-36
2022/06/25 13:07:48;;;;;;;;;;;;;;;23.19;60.91;100515.72;7406122;19;1564;-36
2022/06/25 13:10:17;;;;;;;;;;;;;;;23.18;61.41;100511.38;7401571;19;1883;-36
2022/06/25 13:12:50;;;;;;;;;;;;;;;23.18;61.30;100518.63;7404615;19;1744;-36
2022/06/25 13:15:19;;;;;;;;;;;;;;;23.20;61.36;100503.13;7405385;19;1832;-36
2022/06/25 13:20:30;;;;;;;;;;;;;;;23.09;61.67;100492.66;7402070;19;2052;-36
2022/06/25 13:22:59;;;;;;;;;;;;;;;23.10;61.29;100491.63;7404415;19;2086;-36
2022/06/25 13:25:30;;;;;;;;;;;;;;;23.04;61.51;100479.69;7405397;19;1809;-36
2022/06/25 13:28:29;;;;;;;;;;;;;;;23.03;61.23;100484.22;7403214;19;1789;-36
2022/06/25 13:31:04;;;;;;;;;;;;;;;23.04;61.43;100487.78;7403961;19;1861;-36